sensor_id;sensor_type;location;lat;lon;timestamp;pressure;altitude;pressure_sealevel;temperature;humidity
56420;BME280;42323;52.170;7.538;2023-03-19T00:00:31;100740.91;;;7.72;100.00
56420;BME280;42323;52.170;7.538;2023-03-19T00:02:57;100744.38;;;7.81;100.00
56420;BME280;42323;52.170;7.538;2023-03-19T00:05:24;100745.72;;;7.85;100.00
56420;BME280;42323;52.170;7.538;2023-03-19T00:07:50;100744.88;;;7.85;100.00
56420;BME280;42323;52.170;7.538;2023-03-19T00:10:17;100750.91;;;7.85;100.00
56420;BME280;42323;52.170;7.538;2023-03-19T00:12:43;100720.72;;;7.74;100.00
56420;BME280;42323;52.170;7.538;2023-03-19T00:15:10;100722.19;;;7.77;100.00
56420;BME280;42323;52.170;7.538;2023-03-19T00:17:40;100748.69;;;7.90;100.00
56420;BME280;42323;52.170;7.538;2023-03-19T00:20:10;100731.19;;;7.83;100.00
56420;BME280;42323;52.170;7.538;2023-03-19T00:22:37;100758.78;;;7.93;100.00
56420;BME280;42323;52.170;7.538;2023-03-19T00:25:03;100733.28;;;7.79;100.00
56420;BME280;42323;52.170;7.538;2023-03-19T00:27:30;100756.34;;;7.92;100.00
56420;BME280;42323;52.170;7.538;2023-03-19T00:29:56;100755.84;;;7.88;100.00
56420;BME280;42323;52.170;7.538;2023-03-19T00:32:23;100735.41;;;7.75;100.00
56420;BME280;42323;52.170;7.538;2023-03-19T00:34:50;100717.09;;;7.67;100.00
56420;BME280;42323;52.170;7.538;2023-03-19T00:37:17;100724.97;;;7.75;100.00
56420;BME280;42323;52.170;7.538;2023-03-19T00:39:44;100725.16;;;7.82;100.00
56420;BME280;42323;52.170;7.538;2023-03-19T00:42:10;100748.88;;;7.97;100.00
56420;BME280;42323;52.170;7.538;2023-03-19T00:44:37;100744.47;;;7.97;100.00
56420;BME280;42323;52.170;7.538;2023-03-19T00:47:03;100734.66;;;7.91;100.00
56420;BME280;42323;52.170;7.538;2023-03-19T00:49:32;100718.00;;;7.84;100.00
56420;BME280;42323;52.170;7.538;2023-03-19T00:51:58;100750.41;;;8.08;100.00
56420;BME280;42323;52.170;7.538;2023-03-19T00:54:24;100726.50;;;7.94;100.00
56420;BME280;42323;52.170;7.538;2023-03-19T00:56:51;100751.34;;;8.07;100.00
56420;BME280;42323;52.170;7.538;2023-03-19T00:59:17;100738.13;;;8.00;100.00
56420;BME280;42323;52.170;7.538;2023-03-19T01:01:44;100768.53;;;8.17;100.00
56420;BME280;42323;52.170;7.538;2023-03-19T01:04:10;100767.56;;;8.18;100.00
56420;BME280;42323;52.170;7.538;2023-03-19T01:06:38;100775.84;;;8.14;100.00
56420;BME280;42323;52.170;7.538;2023-03-19T01:09:04;100776.31;;;8.09;100.00
56420;BME280;42323;52.170;7.538;2023-03-19T01:11:31;100780.56;;;8.10;100.00
56420;BME280;42323;52.170;7.538;2023-03-19T01:13:58;100750.31;;;7.91;100.00
56420;BME280;42323;52.170;7.538;2023-03-19T01:16:24;100769.09;;;8.03;100.00
56420;BME280;42323;52.170;7.538;2023-03-19T01:18:50;100751.69;;;8.03;100.00
56420;BME280;42323;52.170;7.538;2023-03-19T01:21:18;100756.91;;;8.12;100.00
56420;BME280;42323;52.170;7.538;2023-03-19T01:23:45;100761.00;;;8.14;100.00
56420;BME280;42323;52.170;7.538;2023-03-19T01:26:11;100753.50;;;8.11;100.00
56420;BME280;42323;52.170;7.538;2023-03-19T01:28:38;100753.66;;;8.10;100.00
56420;BME280;42323;52.170;7.538;2023-03-19T01:31:07;100767.38;;;8.20;100.00
56420;BME280;42323;52.170;7.538;2023-03-19T01:33:33;100767.38;;;8.20;100.00
56420;BME280;42323;52.170;7.538;2023-03-19T01:36:00;100766.44;;;8.21;100.00
56420;BME280;42323;52.170;7.538;2023-03-19T01:38:30;100756.78;;;8.13;100.00
56420;BME280;42323;52.170;7.538;2023-03-19T01:40:58;100767.56;;;8.18;100.00
56420;BME280;42323;52.170;7.538;2023-03-19T01:43:27;100750.69;;;8.04;100.00
56420;BME280;42323;52.170;7.538;2023-03-19T01:48:43;100757.56;;;8.05;100.00
56420;BME280;42323;52.170;7.538;2023-03-19T01:51:14;100737.41;;;7.90;100.00
56420;BME280;42323;52.170;7.538;2023-03-19T01:53:46;100747.75;;;7.99;100.00
56420;BME280;42323;52.170;7.538;2023-03-19T01:58:45;100746.94;;;7.99;100.00
56420;BME280;42323;52.170;7.538;2023-03-19T02:01:12;100749.69;;;7.97;100.00
56420;BME280;42323;52.170;7.538;2023-03-19T02:03:38;100735.19;;;7.95;100.00
56420;BME280;42323;52.170;7.538;2023-03-19T02:06:05;100738.94;;;8.00;100.00
56420;BME280;42323;52.170;7.538;2023-03-19T02:08:34;100725.38;;;7.97;100.00
56420;BME280;42323;52.170;7.538;2023-03-19T02:11:01;100741.25;;;8.03;100.00
56420;BME280;42323;52.170;7.538;2023-03-19T02:13:28;100732.41;;;7.96;100.00
56420;BME280;42323;52.170;7.538;2023-03-19T02:15:54;100739.59;;;8.02;100.00
56420;BME280;42323;52.170;7.538;2023-03-19T02:18:23;100698.41;;;7.80;100.00
56420;BME280;42323;52.170;7.538;2023-03-19T02:21:06;100724.88;;;7.93;100.00
56420;BME280;42323;52.170;7.538;2023-03-19T02:23:38;100700.88;;;7.82;100.00
56420;BME280;42323;52.170;7.538;2023-03-19T02:26:08;100729.28;;;7.93;100.00
56420;BME280;42323;52.170;7.538;2023-03-19T02:28:38;100734.81;;;7.90;100.00
56420;BME280;42323;52.170;7.538;2023-03-19T02:31:06;100723.22;;;7.84;100.00
56420;BME280;42323;52.170;7.538;2023-03-19T02:33:33;100730.88;;;7.86;100.00
56420;BME280;42323;52.170;7.538;2023-03-19T02:36:01;100715.16;;;7.69;100.00
56420;BME280;42323;52.170;7.538;2023-03-19T02:38:32;100727.22;;;7.70;100.00
56420;BME280;42323;52.170;7.538;2023-03-19T02:41:06;100723.13;;;7.68;100.00
56420;BME280;42323;52.170;7.538;2023-03-19T02:43:36;100720.97;;;7.63;100.00
56420;BME280;42323;52.170;7.538;2023-03-19T02:46:05;100741.28;;;7.77;100.00
56420;BME280;42323;52.170;7.538;2023-03-19T02:48:33;100747.97;;;7.80;100.00
56420;BME280;42323;52.170;7.538;2023-03-19T02:51:00;100752.38;;;7.79;100.00
56420;BME280;42323;52.170;7.538;2023-03-19T02:53:26;100753.88;;;7.82;100.00
56420;BME280;42323;52.170;7.538;2023-03-19T02:55:53;100751.25;;;7.82;100.00
56420;BME280;42323;52.170;7.538;2023-03-19T02:58:19;100729.16;;;7.68;100.00
56420;BME280;42323;52.170;7.538;2023-03-19T03:00:46;100723.13;;;7.68;100.00
56420;BME280;42323;52.170;7.538;2023-03-19T03:03:12;100735.41;;;7.75;100.00
56420;BME280;42323;52.170;7.538;2023-03-19T03:05:39;100747.66;;;7.83;100.00
56420;BME280;42323;52.170;7.538;2023-03-19T03:08:05;100737.03;;;7.76;100.00
56420;BME280;42323;52.170;7.538;2023-03-19T03:10:32;100746.63;;;7.76;100.00
56420;BME280;42323;52.170;7.538;2023-03-19T03:12:59;100744.72;;;7.78;100.00
56420;BME280;42323;52.170;7.538;2023-03-19T03:15:27;100721.31;;;7.60;100.00
56420;BME280;42323;52.170;7.538;2023-03-19T03:17:53;100746.50;;;7.77;100.00
56420;BME280;42323;52.170;7.538;2023-03-19T03:20:22;100749.41;;;7.74;100.00
56420;BME280;42323;52.170;7.538;2023-03-19T03:22:48;100751.84;;;7.76;100.00
56420;BME280;42323;52.170;7.538;2023-03-19T03:25:15;100745.31;;;7.72;100.00
56420;BME280;42323;52.170;7.538;2023-03-19T03:27:41;100733.50;;;7.60;100.00
56420;BME280;42323;52.170;7.538;2023-03-19T03:30:10;100743.34;;;7.66;100.00
56420;BME280;42323;52.170;7.538;2023-03-19T03:32:38;100735.63;;;7.56;100.00
56420;BME280;42323;52.170;7.538;2023-03-19T03:35:05;100747.22;;;7.62;100.00
56420;BME280;42323;52.170;7.538;2023-03-19T03:37:32;100755.56;;;7.65;100.00
56420;BME280;42323;52.170;7.538;2023-03-19T03:39:59;100725.28;;;7.46;100.00
56420;BME280;42323;52.170;7.538;2023-03-19T03:42:25;100722.53;;;7.48;100.00
56420;BME280;42323;52.170;7.538;2023-03-19T03:44:52;100746.91;;;7.65;100.00
56420;BME280;42323;52.170;7.538;2023-03-19T03:47:18;100760.97;;;7.72;100.00
56420;BME280;42323;52.170;7.538;2023-03-19T03:49:45;100739.41;;;7.62;100.00
56420;BME280;42323;52.170;7.538;2023-03-19T03:52:11;100760.00;;;7.73;100.00
56420;BME280;42323;52.170;7.538;2023-03-19T03:54:38;100763.44;;;7.73;100.00
56420;BME280;42323;52.170;7.538;2023-03-19T03:57:04;100739.91;;;7.65;100.00
56420;BME280;42323;52.170;7.538;2023-03-19T03:59:31;100768.84;;;7.80;100.00
56420;BME280;42323;52.170;7.538;2023-03-19T04:01:57;100762.81;;;7.79;100.00
56420;BME280;42323;52.170;7.538;2023-03-19T04:04:24;100762.50;;;7.83;100.00
56420;BME280;42323;52.170;7.538;2023-03-19T04:06:51;100756.13;;;7.85;100.00
56420;BME280;42323;52.170;7.538;2023-03-19T04:09:18;100747.44;;;7.76;100.00
56420;BME280;42323;52.170;7.538;2023-03-19T04:11:44;100763.38;;;7.91;100.00
56420;BME280;42323;52.170;7.538;2023-03-19T04:14:11;100732.13;;;7.73;100.00
56420;BME280;42323;52.170;7.538;2023-03-19T04:16:38;100764.00;;;7.93;100.00
56420;BME280;42323;52.170;7.538;2023-03-19T04:19:05;100770.22;;;7.92;100.00
56420;BME280;42323;52.170;7.538;2023-03-19T04:21:32;100764.19;;;7.92;100.00
56420;BME280;42323;52.170;7.538;2023-03-19T04:23:59;100738.75;;;7.68;100.00
56420;BME280;42323;52.170;7.538;2023-03-19T04:26:27;100777.22;;;7.92;100.00
56420;BME280;42323;52.170;7.538;2023-03-19T04:28:53;100782.28;;;7.93;100.00
56420;BME280;42323;52.170;7.538;2023-03-19T04:31:20;100783.09;;;7.94;100.00
56420;BME280;42323;52.170;7.538;2023-03-19T04:33:47;100761.69;;;7.82;100.00
56420;BME280;42323;52.170;7.538;2023-03-19T04:36:14;100783.09;;;7.94;100.00
56420;BME280;42323;52.170;7.538;2023-03-19T04:38:42;100776.91;;;7.95;100.00
56420;BME280;42323;52.170;7.538;2023-03-19T04:41:09;100759.91;;;7.83;100.00
56420;BME280;42323;52.170;7.538;2023-03-19T04:43:36;100780.13;;;7.89;100.00
56420;BME280;42323;52.170;7.538;2023-03-19T04:46:02;100736.63;;;7.63;100.00
56420;BME280;42323;52.170;7.538;2023-03-19T04:48:29;100766.03;;;7.73;100.00
56420;BME280;42323;52.170;7.538;2023-03-19T04:50:55;100781.94;;;7.88;100.00
56420;BME280;42323;52.170;7.538;2023-03-19T04:53:22;100784.84;;;7.85;100.00
56420;BME280;42323;52.170;7.538;2023-03-19T04:55:51;100778.81;;;7.85;100.00
56420;BME280;42323;52.170;7.538;2023-03-19T04:58:17;100788.41;;;7.84;100.00
56420;BME280;42323;52.170;7.538;2023-03-19T05:00:44;100758.00;;;7.67;100.00
56420;BME280;42323;52.170;7.538;2023-03-19T05:03:15;100759.63;;;7.68;100.00
56420;BME280;42323;52.170;7.538;2023-03-19T05:05:42;100793.00;;;7.82;100.00
56420;BME280;42323;52.170;7.538;2023-03-19T05:08:09;100776.47;;;7.73;100.00
56420;BME280;42323;52.170;7.538;2023-03-19T05:10:36;100798.34;;;7.80;100.00
56420;BME280;42323;52.170;7.538;2023-03-19T05:13:03;100799.16;;;7.81;100.00
56420;BME280;42323;52.170;7.538;2023-03-19T05:15:30;100779.53;;;7.69;100.00
56420;BME280;42323;52.170;7.538;2023-03-19T05:17:56;100789.69;;;7.80;100.00
56420;BME280;42323;52.170;7.538;2023-03-19T05:20:23;100782.81;;;7.71;100.00
56420;BME280;42323;52.170;7.538;2023-03-19T05:22:53;100784.59;;;7.70;100.00
56420;BME280;42323;52.170;7.538;2023-03-19T05:25:19;100763.16;;;7.59;100.00
56420;BME280;42323;52.170;7.538;2023-03-19T05:27:46;100776.09;;;7.68;100.00
56420;BME280;42323;52.170;7.538;2023-03-19T05:30:12;100757.44;;;7.55;100.00
56420;BME280;42323;52.170;7.538;2023-03-19T05:32:39;100737.66;;;7.44;100.00
56420;BME280;42323;52.170;7.538;2023-03-19T05:35:06;100785.94;;;7.74;100.00
56420;BME280;42323;52.170;7.538;2023-03-19T05:37:33;100783.63;;;7.71;100.00
56420;BME280;42323;52.170;7.538;2023-03-19T05:39:59;100773.00;;;7.65;100.00
56420;BME280;42323;52.170;7.538;2023-03-19T05:42:26;100782.97;;;7.69;100.00
56420;BME280;42323;52.170;7.538;2023-03-19T05:44:53;100800.44;;;7.77;100.00
56420;BME280;42323;52.170;7.538;2023-03-19T05:47:19;100800.44;;;7.77;100.00
56420;BME280;42323;52.170;7.538;2023-03-19T05:49:46;100806.50;;;7.77;100.00
56420;BME280;42323;52.170;7.538;2023-03-19T05:52:13;100809.91;;;7.78;100.00
56420;BME280;42323;52.170;7.538;2023-03-19T05:54:39;100806.63;;;7.76;100.00
56420;BME280;42323;52.170;7.538;2023-03-19T05:57:06;100807.44;;;7.76;100.00
56420;BME280;42323;52.170;7.538;2023-03-19T05:59:33;100794.88;;;7.72;100.00
56420;BME280;42323;52.170;7.538;2023-03-19T06:02:00;100795.03;;;7.70;100.00
56420;BME280;42323;52.170;7.538;2023-03-19T06:04:26;100763.31;;;7.57;100.00
56420;BME280;42323;52.170;7.538;2023-03-19T06:06:53;100781.13;;;7.62;100.00
56420;BME280;42323;52.170;7.538;2023-03-19T06:09:19;100792.06;;;7.65;100.00
56420;BME280;42323;52.170;7.538;2023-03-19T06:11:46;100813.41;;;7.87;100.00
56420;BME280;42323;52.170;7.538;2023-03-19T06:14:13;100767.41;;;7.60;100.00
56420;BME280;42323;52.170;7.538;2023-03-19T06:16:39;100808.00;;;7.88;100.00
56420;BME280;42323;52.170;7.538;2023-03-19T06:19:06;100812.56;;;7.86;100.00
56420;BME280;42323;52.170;7.538;2023-03-19T06:21:32;100809.34;;;7.92;100.00
56420;BME280;42323;52.170;7.538;2023-03-19T06:23:59;100822.44;;;8.00;100.00
56420;BME280;42323;52.170;7.538;2023-03-19T06:26:39;100634.38;;;6.73;100.00
56420;BME280;42323;52.170;7.538;2023-03-19T06:29:10;100697.28;;;7.22;100.00
56420;BME280;42323;52.170;7.538;2023-03-19T06:31:37;100762.69;;;7.63;100.00
56420;BME280;42323;52.170;7.538;2023-03-19T06:34:07;100772.63;;;7.60;100.00
56420;BME280;42323;52.170;7.538;2023-03-19T06:36:33;100779.22;;;7.72;100.00
56420;BME280;42323;52.170;7.538;2023-03-19T06:39:00;100636.97;;;6.91;100.00
56420;BME280;42323;52.170;7.538;2023-03-19T06:41:28;100787.97;;;7.89;100.00
56420;BME280;42323;52.170;7.538;2023-03-19T06:43:55;100832.47;;;8.13;100.00
56420;BME280;42323;52.170;7.538;2023-03-19T06:46:22;100735.09;;;7.52;100.00
56420;BME280;42323;52.170;7.538;2023-03-19T06:48:49;100791.25;;;7.91;100.00
56420;BME280;42323;52.170;7.538;2023-03-19T06:51:16;100833.31;;;8.22;100.00
56420;BME280;42323;52.170;7.538;2023-03-19T06:53:42;100819.75;;;8.18;100.00
56420;BME280;42323;52.170;7.538;2023-03-19T06:56:09;100838.41;;;8.32;100.00
56420;BME280;42323;52.170;7.538;2023-03-19T06:58:35;100833.50;;;8.28;100.00
56420;BME280;42323;52.170;7.538;2023-03-19T07:01:04;100810.25;;;8.09;100.00
56420;BME280;42323;52.170;7.538;2023-03-19T07:03:31;100849.31;;;8.27;100.00
56420;BME280;42323;52.170;7.538;2023-03-19T07:05:58;100855.13;;;8.39;100.00
56420;BME280;42323;52.170;7.538;2023-03-19T07:08:24;100866.94;;;8.59;100.00
56420;BME280;42323;52.170;7.538;2023-03-19T07:11:02;100853.28;;;8.65;100.00
56420;BME280;42323;52.170;7.538;2023-03-19T07:13:29;100866.88;;;8.77;100.00
56420;BME280;42323;52.170;7.538;2023-03-19T07:15:55;100847.59;;;8.78;100.00
56420;BME280;42323;52.170;7.538;2023-03-19T07:18:24;100853.06;;;9.01;100.00
56420;BME280;42323;52.170;7.538;2023-03-19T07:20:51;100879.75;;;9.37;100.00
56420;BME280;42323;52.170;7.538;2023-03-19T07:23:18;100877.81;;;9.55;100.00
56420;BME280;42323;52.170;7.538;2023-03-19T07:25:44;100883.19;;;9.70;100.00
56420;BME280;42323;52.170;7.538;2023-03-19T07:28:13;100891.38;;;9.67;100.00
56420;BME280;42323;52.170;7.538;2023-03-19T07:30:40;100887.59;;;9.70;100.00
56420;BME280;42323;52.170;7.538;2023-03-19T07:33:07;100889.91;;;9.73;100.00
56420;BME280;42323;52.170;7.538;2023-03-19T07:35:33;100842.00;;;9.56;100.00
56420;BME280;42323;52.170;7.538;2023-03-19T07:38:00;100873.84;;;9.92;100.00
56420;BME280;42323;52.170;7.538;2023-03-19T07:40:28;100872.69;;;10.11;100.00
56420;BME280;42323;52.170;7.538;2023-03-19T07:42:54;100873.66;;;10.26;100.00
56420;BME280;42323;52.170;7.538;2023-03-19T07:45:21;100869.09;;;10.28;100.00
56420;BME280;42323;52.170;7.538;2023-03-19T07:47:49;100886.22;;;10.39;100.00
56420;BME280;42323;52.170;7.538;2023-03-19T07:50:16;100882.97;;;10.37;100.00
56420;BME280;42323;52.170;7.538;2023-03-19T07:52:46;100880.03;;;10.32;100.00
56420;BME280;42323;52.170;7.538;2023-03-19T07:55:13;100896.22;;;10.36;100.00
56420;BME280;42323;52.170;7.538;2023-03-19T07:57:40;100894.47;;;10.28;100.00
56420;BME280;42323;52.170;7.538;2023-03-19T08:00:09;100895.06;;;10.38;100.00
56420;BME280;42323;52.170;7.538;2023-03-19T08:02:36;100876.44;;;10.33;100.00
56420;BME280;42323;52.170;7.538;2023-03-19T08:05:02;100887.41;;;10.37;100.00
56420;BME280;42323;52.170;7.538;2023-03-19T08:07:30;100888.84;;;10.31;99.42
56420;BME280;42323;52.170;7.538;2023-03-19T08:09:57;100897.53;;;10.32;99.34
56420;BME280;42323;52.170;7.538;2023-03-19T08:12:24;100896.72;;;10.31;99.83
56420;BME280;42323;52.170;7.538;2023-03-19T08:14:51;100912.41;;;10.39;99.24
56420;BME280;42323;52.170;7.538;2023-03-19T08:17:17;100907.69;;;10.35;98.62
56420;BME280;42323;52.170;7.538;2023-03-19T08:19:44;100904.88;;;10.44;97.76
56420;BME280;42323;52.170;7.538;2023-03-19T08:22:10;100920.41;;;10.62;97.96
56420;BME280;42323;52.170;7.538;2023-03-19T08:24:38;100914.75;;;10.73;98.65
56420;BME280;42323;52.170;7.538;2023-03-19T08:27:04;100923.38;;;10.90;98.75
56420;BME280;42323;52.170;7.538;2023-03-19T08:29:31;100926.53;;;11.17;98.44
56420;BME280;42323;52.170;7.538;2023-03-19T08:31:57;100921.22;;;11.25;97.56
56420;BME280;42323;52.170;7.538;2023-03-19T08:34:25;100919.19;;;11.35;97.17
56420;BME280;42323;52.170;7.538;2023-03-19T08:36:52;100928.66;;;11.44;95.67
56420;BME280;42323;52.170;7.538;2023-03-19T08:39:18;100908.78;;;11.27;95.88
56420;BME280;42323;52.170;7.538;2023-03-19T08:41:45;100936.53;;;11.44;96.18
56420;BME280;42323;52.170;7.538;2023-03-19T08:44:11;100917.81;;;11.47;95.73
56420;BME280;42323;52.170;7.538;2023-03-19T08:46:38;100898.81;;;11.45;93.54
56420;BME280;42323;52.170;7.538;2023-03-19T08:49:05;100937.53;;;11.89;92.85
56420;BME280;42323;52.170;7.538;2023-03-19T08:51:31;100928.13;;;11.72;93.15
56420;BME280;42323;52.170;7.538;2023-03-19T08:53:58;100941.78;;;11.67;93.70
56420;BME280;42323;52.170;7.538;2023-03-19T08:56:24;100944.75;;;11.64;93.54
56420;BME280;42323;52.170;7.538;2023-03-19T08:58:51;100944.06;;;11.70;92.86
56420;BME280;42323;52.170;7.538;2023-03-19T09:01:17;100950.75;;;11.96;90.94
56420;BME280;42323;52.170;7.538;2023-03-19T09:03:44;100941.63;;;11.92;89.83
56420;BME280;42323;52.170;7.538;2023-03-19T09:06:12;100955.25;;;12.10;90.14
56420;BME280;42323;52.170;7.538;2023-03-19T09:08:39;100956.66;;;12.36;88.94
56420;BME280;42323;52.170;7.538;2023-03-19T09:11:07;100934.56;;;12.60;86.03
56420;BME280;42323;52.170;7.538;2023-03-19T09:13:34;100941.19;;;13.21;85.79
56420;BME280;42323;52.170;7.538;2023-03-19T09:16:00;100923.88;;;13.27;82.00
56420;BME280;42323;52.170;7.538;2023-03-19T09:18:29;100944.50;;;13.45;82.59
56420;BME280;42323;52.170;7.538;2023-03-19T09:20:56;100946.34;;;13.29;82.32
56420;BME280;42323;52.170;7.538;2023-03-19T09:23:22;100955.28;;;12.99;81.89
56420;BME280;42323;52.170;7.538;2023-03-19T09:25:49;100962.63;;;13.03;82.11
56420;BME280;42323;52.170;7.538;2023-03-19T09:28:16;100957.94;;;12.84;82.47
56420;BME280;42323;52.170;7.538;2023-03-19T09:30:47;100971.84;;;12.78;82.14
56420;BME280;42323;52.170;7.538;2023-03-19T09:33:15;100972.16;;;12.45;83.34
56420;BME280;42323;52.170;7.538;2023-03-19T09:35:41;100976.03;;;12.20;84.26
56420;BME280;42323;52.170;7.538;2023-03-19T09:38:08;100979.50;;;11.97;85.98
56420;BME280;42323;52.170;7.538;2023-03-19T09:40:41;100972.97;;;11.93;85.84
56420;BME280;42323;52.170;7.538;2023-03-19T09:45:57;100982.06;;;11.83;86.89
56420;BME280;42323;52.170;7.538;2023-03-19T09:48:33;100966.38;;;11.97;85.80
56420;BME280;42323;52.170;7.538;2023-03-19T09:51:04;100986.03;;;12.39;84.07
56420;BME280;42323;52.170;7.538;2023-03-19T09:53:55;100975.06;;;12.36;84.09
56420;BME280;42323;52.170;7.538;2023-03-19T09:56:24;100974.69;;;12.39;83.88
56420;BME280;42323;52.170;7.538;2023-03-19T09:58:51;100999.69;;;12.35;82.63
56420;BME280;42323;52.170;7.538;2023-03-19T10:01:24;100996.44;;;12.33;81.97
56420;BME280;42323;52.170;7.538;2023-03-19T10:04:18;101005.78;;;12.35;82.72
56420;BME280;42323;52.170;7.538;2023-03-19T10:06:59;101001.44;;;12.42;83.20
56420;BME280;42323;52.170;7.538;2023-03-19T10:15:35;100996.50;;;16.07;69.60
56420;BME280;42323;52.170;7.538;2023-03-19T10:18:28;100994.88;;;17.17;64.10
56420;BME280;42323;52.170;7.538;2023-03-19T10:21:12;101004.13;;;16.95;63.98
56420;BME280;42323;52.170;7.538;2023-03-19T10:24:02;101005.63;;;16.44;64.74
56420;BME280;42323;52.170;7.538;2023-03-19T10:26:34;100994.31;;;15.43;67.67
56420;BME280;42323;52.170;7.538;2023-03-19T10:29:12;101002.13;;;14.68;70.98
56420;BME280;42323;52.170;7.538;2023-03-19T10:34:41;101006.81;;;13.59;73.88
56420;BME280;42323;52.170;7.538;2023-03-19T10:39:41;101016.13;;;13.40;75.64
56420;BME280;42323;52.170;7.538;2023-03-19T10:42:45;101010.16;;;13.32;75.83
56420;BME280;42323;52.170;7.538;2023-03-19T10:45:36;100997.44;;;13.20;76.32
56420;BME280;42323;52.170;7.538;2023-03-19T10:48:05;101015.59;;;13.45;76.04
56420;BME280;42323;52.170;7.538;2023-03-19T10:50:36;101012.31;;;13.79;74.12
56420;BME280;42323;52.170;7.538;2023-03-19T10:56:03;100988.94;;;14.68;70.28
56420;BME280;42323;52.170;7.538;2023-03-19T10:58:34;101014.41;;;15.37;68.12
56420;BME280;42323;52.170;7.538;2023-03-19T11:01:11;101015.78;;;16.14;66.04
56420;BME280;42323;52.170;7.538;2023-03-19T11:03:54;101012.28;;;16.93;63.64
56420;BME280;42323;52.170;7.538;2023-03-19T11:06:36;101020.69;;;16.24;64.56
56420;BME280;42323;52.170;7.538;2023-03-19T11:11:44;101028.88;;;15.00;67.32
56420;BME280;42323;52.170;7.538;2023-03-19T11:14:20;101022.38;;;14.68;68.59
56420;BME280;42323;52.170;7.538;2023-03-19T11:19:26;100980.44;;;13.95;70.89
56420;BME280;42323;52.170;7.538;2023-03-19T11:24:41;101014.84;;;14.15;69.96
56420;BME280;42323;52.170;7.538;2023-03-19T11:27:09;101020.38;;;14.20;70.86
56420;BME280;42323;52.170;7.538;2023-03-19T11:29:45;100996.88;;;13.97;70.84
56420;BME280;42323;52.170;7.538;2023-03-19T11:32:29;101020.91;;;14.37;70.00
56420;BME280;42323;52.170;7.538;2023-03-19T11:35:03;101022.00;;;14.43;69.84
56420;BME280;42323;52.170;7.538;2023-03-19T11:40:08;101029.75;;;15.14;67.55
56420;BME280;42323;52.170;7.538;2023-03-19T11:53:34;100990.78;;;21.56;48.11
56420;BME280;42323;52.170;7.538;2023-03-19T11:59:28;101007.00;;;20.39;49.20
56420;BME280;42323;52.170;7.538;2023-03-19T12:04:57;101015.41;;;17.67;56.39
56420;BME280;42323;52.170;7.538;2023-03-19T12:10:16;101020.09;;;16.02;61.29
56420;BME280;42323;52.170;7.538;2023-03-19T12:18:46;101023.97;;;15.45;64.29
56420;BME280;42323;52.170;7.538;2023-03-19T12:25:00;101021.97;;;15.05;65.24
56420;BME280;42323;52.170;7.538;2023-03-19T12:36:02;101010.97;;;14.61;66.94
56420;BME280;42323;52.170;7.538;2023-03-19T12:38:53;101020.97;;;14.72;67.47
56420;BME280;42323;52.170;7.538;2023-03-19T12:41:26;101008.22;;;14.75;66.45
56420;BME280;42323;52.170;7.538;2023-03-19T12:46:42;101017.59;;;14.85;66.22
56420;BME280;42323;52.170;7.538;2023-03-19T12:51:40;101016.63;;;14.86;66.46
56420;BME280;42323;52.170;7.538;2023-03-19T12:54:15;101024.09;;;14.82;66.16
56420;BME280;42323;52.170;7.538;2023-03-19T12:56:58;101029.53;;;14.74;66.73
56420;BME280;42323;52.170;7.538;2023-03-19T12:59:58;101029.69;;;14.66;67.39
56420;BME280;42323;52.170;7.538;2023-03-19T13:05:44;101022.41;;;14.46;69.38
56420;BME280;42323;52.170;7.538;2023-03-19T13:08:30;101030.47;;;14.38;69.62
56420;BME280;42323;52.170;7.538;2023-03-19T13:11:02;101033.63;;;14.27;70.03
56420;BME280;42323;52.170;7.538;2023-03-19T13:14:00;101027.59;;;14.12;70.54
56420;BME280;42323;52.170;7.538;2023-03-19T13:16:39;101029.38;;;14.04;70.75
56420;BME280;42323;52.170;7.538;2023-03-19T13:19:17;101038.09;;;14.05;71.40
56420;BME280;42323;52.170;7.538;2023-03-19T13:21:50;101005.78;;;13.75;72.01
56420;BME280;42323;52.170;7.538;2023-03-19T13:24:35;101033.75;;;13.97;71.74
56420;BME280;42323;52.170;7.538;2023-03-19T13:27:03;100993.41;;;13.75;72.41
56420;BME280;42323;52.170;7.538;2023-03-19T13:30:00;100972.84;;;13.43;73.96
56420;BME280;42323;52.170;7.538;2023-03-19T13:32:49;101033.09;;;13.52;76.13
56420;BME280;42323;52.170;7.538;2023-03-19T13:35:24;101035.47;;;13.33;77.13
56420;BME280;42323;52.170;7.538;2023-03-19T13:38:03;101032.47;;;13.21;77.04
56420;BME280;42323;52.170;7.538;2023-03-19T13:43:02;101025.88;;;13.25;78.19
56420;BME280;42323;52.170;7.538;2023-03-19T13:45:36;101019.13;;;13.37;78.74
56420;BME280;42323;52.170;7.538;2023-03-19T13:48:22;101023.44;;;13.60;78.88
56420;BME280;42323;52.170;7.538;2023-03-19T13:51:33;101019.19;;;14.01;77.88
56420;BME280;42323;52.170;7.538;2023-03-19T13:54:30;101019.50;;;14.63;76.17
56420;BME280;42323;52.170;7.538;2023-03-19T13:56:31;101019.91;;;14.94;73.97
56420;BME280;42323;52.170;7.538;2023-03-19T14:01:40;101019.00;;;16.89;66.65
56420;BME280;42323;52.170;7.538;2023-03-19T14:06:45;101011.47;;;20.97;56.51
56420;BME280;42323;52.170;7.538;2023-03-19T14:17:21;100995.94;;;23.84;42.98
56420;BME280;42323;52.170;7.538;2023-03-19T14:19:51;100933.78;;;23.76;41.03
56420;BME280;42323;52.170;7.538;2023-03-19T14:22:39;100996.13;;;24.46;39.88
56420;BME280;42323;52.170;7.538;2023-03-19T14:25:16;101000.97;;;24.49;39.38
56420;BME280;42323;52.170;7.538;2023-03-19T14:27:53;100993.47;;;24.51;39.09
56420;BME280;42323;52.170;7.538;2023-03-19T14:30:29;100997.34;;;24.76;39.46
56420;BME280;42323;52.170;7.538;2023-03-19T14:32:59;101002.94;;;25.22;38.57
56420;BME280;42323;52.170;7.538;2023-03-19T14:35:31;100992.25;;;25.52;36.67
56420;BME280;42323;52.170;7.538;2023-03-19T14:38:09;100976.13;;;25.63;36.85